METAR Data
IDs: Format: Raw Decoded Include TAF

Data at: 1857 UTC 17 Oct 2019

EBBR 171850Z 18003KT CAVOK 11/10 Q1009 NOSIG